Time;durP1;ratioP1;P1;durP2;ratioP2;P2;SDS_P1;SDS_P2;PMS_P1;PMS_P2;Temp;Humidity;BMP_temperature;BMP_pressure;BME280_temperature;BME280_humidity;BME280_pressure;Samples;Min_cycle;Max_cycle;Signal;HPM_P1;HPM_P2
2022/07/15 00:01:07;;;;;;;1.45;1.10;;;21.70;99.90;;;;;;5100424;28;20317;-64
2022/07/15 00:03:34;;;;;;;1.10;1.10;;;21.50;99.90;;;;;;5097420;28;20217;-64
2022/07/15 00:06:00;;;;;;;1.20;1.20;;;21.40;99.90;;;;;;5087792;28;20204;-64
2022/07/15 00:08:28;;;;;;;1.10;1.10;;;21.40;99.90;;;;;;5085394;28;20229;-63
2022/07/15 00:10:55;;;;;;;1.10;1.00;;;21.30;99.90;;;;;;5095134;28;20223;-63
2022/07/15 00:13:23;;;;;;;1.08;1.08;;;21.30;99.90;;;;;;5098882;28;20201;-64
2022/07/15 00:15:52;;;;;;;1.17;1.10;;;21.20;99.90;;;;;;5110100;28;20208;-64
2022/07/15 00:18:18;;;;;;;0.98;0.98;;;21.20;99.90;;;;;;5103264;28;20646;-65
2022/07/15 00:20:45;;;;;;;1.20;1.15;;;21.20;99.90;;;;;;5094376;28;20287;-65
2022/07/15 00:23:12;;;;;;;1.30;1.27;;;21.10;99.90;;;;;;5096847;28;20736;-64
2022/07/15 00:25:39;;;;;;;1.00;1.00;;;21.10;99.90;;;;;;5098352;28;20203;-64
2022/07/15 00:28:08;;;;;;;1.00;1.00;;;21.00;99.90;;;;;;5085689;28;20195;-63
2022/07/15 00:30:39;;;;;;;1.10;1.08;;;21.00;99.90;;;;;;5098438;28;20691;-64
2022/07/15 00:33:08;;;;;;;1.25;1.25;;;21.00;99.90;;;;;;5077773;28;20290;-64
2022/07/15 00:35:36;;;;;;;0.80;0.80;;;20.90;99.90;;;;;;5098659;28;20207;-64
2022/07/15 00:38:04;;;;;;;1.05;1.05;;;20.90;99.90;;;;;;5093060;28;20229;-65
2022/07/15 00:40:31;;;;;;;0.98;0.98;;;20.90;99.90;;;;;;5096030;28;20222;-65
2022/07/15 00:42:58;;;;;;;1.08;1.08;;;20.80;99.90;;;;;;5094745;28;20202;-64
2022/07/15 00:45:26;;;;;;;1.80;1.02;;;20.80;99.90;;;;;;5088683;28;20671;-64
2022/07/15 00:47:55;;;;;;;1.23;1.13;;;20.80;99.90;;;;;;5095840;28;20289;-64
2022/07/15 00:50:25;;;;;;;1.20;1.10;;;20.80;99.90;;;;;;5091573;28;20598;-65
2022/07/15 00:52:56;;;;;;;1.00;1.00;;;20.60;99.90;;;;;;5099856;28;20202;-64
2022/07/15 00:55:24;;;;;;;1.23;1.20;;;20.60;99.90;;;;;;5093307;28;20198;-64
2022/07/15 00:57:55;;;;;;;0.80;0.80;;;20.50;99.90;;;;;;5103486;28;20205;-64
2022/07/15 01:00:22;;;;;;;1.38;1.00;;;20.50;99.90;;;;;;5091849;28;20581;-65
2022/07/15 01:02:50;;;;;;;1.48;0.85;;;20.50;99.90;;;;;;5087316;28;20209;-63
2022/07/15 01:05:19;;;;;;;0.95;0.70;;;20.40;99.90;;;;;;5085678;28;20195;-64
2022/07/15 01:07:49;;;;;;;1.23;1.13;;;20.30;99.90;;;;;;5077606;28;20203;-64
2022/07/15 01:10:16;;;;;;;1.08;0.98;;;20.20;99.90;;;;;;5090891;28;20282;-63
2022/07/15 01:12:46;;;;;;;1.23;1.10;;;20.20;99.90;;;;;;5096360;28;20210;-63
2022/07/15 01:15:13;;;;;;;1.02;1.02;;;20.10;99.90;;;;;;5105800;28;20557;-63
2022/07/15 01:17:40;;;;;;;1.17;1.08;;;20.00;99.90;;;;;;5092831;28;20218;-64
2022/07/15 01:20:09;;;;;;;0.80;0.80;;;19.80;99.90;;;;;;5096148;28;20241;-63
2022/07/15 01:22:37;;;;;;;1.10;1.10;;;19.70;99.90;;;;;;5095444;28;20658;-65
2022/07/15 01:25:05;;;;;;;1.05;1.02;;;19.70;99.90;;;;;;5100141;28;20285;-65
2022/07/15 01:27:33;;;;;;;0.90;0.90;;;19.60;99.90;;;;;;5098067;28;20636;-64
2022/07/15 01:30:00;;;;;;;0.90;0.90;;;19.50;99.90;;;;;;5088716;28;20219;-64
2022/07/15 01:32:27;;;;;;;0.90;0.90;;;19.40;99.90;;;;;;5092412;28;20293;-64
2022/07/15 01:34:54;;;;;;;1.00;1.00;;;19.40;99.90;;;;;;5089119;28;20234;-64
2022/07/15 01:37:21;;;;;;;1.00;1.00;;;19.40;99.90;;;;;;5099209;28;20660;-64
2022/07/15 01:39:49;;;;;;;0.90;0.90;;;19.40;99.90;;;;;;5089781;28;20759;-64
2022/07/15 01:42:16;;;;;;;1.10;1.00;;;19.40;99.90;;;;;;5095188;28;20218;-64
2022/07/15 01:44:43;;;;;;;1.13;1.10;;;19.40;99.90;;;;;;5109743;28;20284;-63
2022/07/15 01:47:10;;;;;;;1.00;1.00;;;19.40;99.90;;;;;;5100562;28;20302;-65
2022/07/15 01:49:37;;;;;;;0.90;0.90;;;19.30;99.90;;;;;;5102587;28;20261;-64
2022/07/15 01:52:08;;;;;;;0.90;0.90;;;19.30;99.90;;;;;;5095454;28;20336;-64
2022/07/15 01:54:35;;;;;;;0.90;0.90;;;19.20;99.90;;;;;;5096018;28;20225;-63
2022/07/15 01:57:04;;;;;;;1.00;1.00;;;19.10;99.90;;;;;;5101321;28;20761;-65
2022/07/15 01:59:31;;;;;;;1.10;1.10;;;19.00;99.90;;;;;;5102338;28;20664;-64
2022/07/15 02:01:58;;;;;;;1.00;1.00;;;18.90;99.90;;;;;;5102085;28;20412;-64
2022/07/15 02:04:26;;;;;;;1.35;0.93;;;18.90;99.90;;;;;;5096655;28;20197;-64
2022/07/15 02:06:53;;;;;;;1.25;1.20;;;18.80;99.90;;;;;;5104625;28;20224;-64
2022/07/15 02:09:19;;;;;;;0.85;0.85;;;18.90;99.90;;;;;;5100826;28;20216;-63
2022/07/15 02:11:47;;;;;;;1.00;0.90;;;18.90;99.90;;;;;;5099500;28;20205;-64
2022/07/15 02:14:15;;;;;;;0.90;0.90;;;18.90;99.90;;;;;;5103828;28;20198;-63
2022/07/15 02:16:42;;;;;;;0.90;0.90;;;18.80;99.90;;;;;;5105989;28;20205;-64
2022/07/15 02:19:09;;;;;;;0.80;0.80;;;18.80;99.90;;;;;;5102011;28;20226;-64
2022/07/15 02:21:36;;;;;;;1.10;0.90;;;18.70;99.90;;;;;;5102676;28;20225;-64
2022/07/15 02:24:04;;;;;;;0.80;0.80;;;18.70;99.90;;;;;;5097196;28;20212;-64
2022/07/15 02:26:31;;;;;;;1.00;1.00;;;18.70;99.90;;;;;;5105491;28;20209;-64
2022/07/15 02:28:58;;;;;;;1.00;1.00;;;18.70;99.90;;;;;;5105521;28;20285;-63
2022/07/15 02:31:27;;;;;;;0.88;0.88;;;18.70;99.90;;;;;;5098942;28;20332;-63
2022/07/15 02:33:54;;;;;;;1.00;1.00;;;18.60;99.90;;;;;;5104646;28;20208;-64
2022/07/15 02:36:21;;;;;;;1.05;1.05;;;18.60;99.90;;;;;;5103763;28;20685;-63
2022/07/15 02:38:47;;;;;;;0.88;0.88;;;18.50;99.90;;;;;;5105828;28;20205;-63
2022/07/15 02:41:14;;;;;;;1.00;1.00;;;18.40;99.90;;;;;;5096287;28;20226;-64
2022/07/15 02:43:42;;;;;;;1.05;1.05;;;18.30;99.90;;;;;;5105183;28;20512;-64
2022/07/15 02:46:10;;;;;;;1.00;1.00;;;18.30;99.90;;;;;;5103650;28;20208;-63
2022/07/15 02:48:38;;;;;;;0.80;0.80;;;18.20;99.90;;;;;;5093832;28;20212;-64
2022/07/15 02:51:06;;;;;;;0.90;0.90;;;18.20;99.90;;;;;;5099313;28;20217;-64
2022/07/15 02:53:33;;;;;;;1.10;1.10;;;18.20;99.90;;;;;;5105554;28;20285;-64
2022/07/15 02:56:01;;;;;;;0.80;0.80;;;18.20;99.90;;;;;;5120053;28;20203;-65
2022/07/15 02:58:29;;;;;;;1.10;1.10;;;18.30;99.90;;;;;;5102209;28;20218;-64
2022/07/15 03:00:56;;;;;;;1.20;1.15;;;18.30;99.90;;;;;;5102272;28;20222;-64
2022/07/15 03:03:22;;;;;;;0.90;0.90;;;18.20;99.90;;;;;;5103546;28;20275;-66
2022/07/15 03:05:51;;;;;;;2.78;0.90;;;18.10;99.90;;;;;;5106512;28;20234;-63
2022/07/15 03:08:18;;;;;;;1.05;1.05;;;18.20;99.90;;;;;;5090898;28;20230;-63
2022/07/15 03:10:45;;;;;;;1.30;1.02;;;18.20;99.90;;;;;;5103486;28;20233;-65
2022/07/15 03:13:12;;;;;;;1.00;1.00;;;18.20;99.90;;;;;;5108902;28;20313;-65
2022/07/15 03:15:39;;;;;;;0.75;0.75;;;18.20;99.90;;;;;;5103603;28;20202;-65
2022/07/15 03:18:05;;;;;;;0.80;0.80;;;18.10;99.90;;;;;;5106927;28;20238;-65
2022/07/15 03:20:32;;;;;;;1.13;1.05;;;18.20;99.90;;;;;;5107064;28;20236;-65
2022/07/15 03:23:01;;;;;;;1.00;1.00;;;18.20;99.90;;;;;;5107968;28;20257;-64
2022/07/15 03:25:27;;;;;;;1.00;1.00;;;18.10;99.90;;;;;;5101995;28;20198;-64
2022/07/15 03:27:54;;;;;;;1.00;1.00;;;18.00;99.90;;;;;;5101242;28;20518;-64
2022/07/15 03:30:22;;;;;;;0.93;0.93;;;18.00;99.90;;;;;;5111069;28;20328;-65
2022/07/15 03:32:49;;;;;;;1.05;1.05;;;17.90;99.90;;;;;;5108347;28;20293;-64
2022/07/15 03:35:16;;;;;;;0.90;0.90;;;18.00;99.90;;;;;;5105287;28;20231;-65
2022/07/15 03:37:43;;;;;;;1.10;1.10;;;18.00;99.90;;;;;;5096959;28;20297;-65
2022/07/15 03:40:12;;;;;;;0.85;0.85;;;17.90;99.90;;;;;;5105262;28;20321;-64
2022/07/15 03:42:39;;;;;;;0.90;0.90;;;17.80;99.90;;;;;;5115440;28;20312;-64
2022/07/15 03:45:07;;;;;;;1.20;1.10;;;17.70;99.90;;;;;;5105203;28;20203;-65
2022/07/15 03:47:34;;;;;;;0.90;0.90;;;17.60;99.90;;;;;;5102719;28;20293;-64
2022/07/15 03:50:01;;;;;;;0.88;0.88;;;17.70;99.90;;;;;;5103452;28;20297;-65
2022/07/15 03:52:28;;;;;;;1.13;1.05;;;17.60;99.90;;;;;;5090062;28;20687;-64
2022/07/15 03:54:54;;;;;;;0.90;0.90;;;17.50;99.90;;;;;;5105213;28;20237;-64
2022/07/15 03:57:24;;;;;;;0.95;0.93;;;17.40;99.90;;;;;;5103187;28;20207;-64
2022/07/15 03:59:52;;;;;;;0.88;0.88;;;17.50;99.90;;;;;;5102220;28;20218;-63
2022/07/15 04:02:20;;;;;;;0.90;0.90;;;17.50;99.90;;;;;;5098388;28;20222;-64
2022/07/15 04:04:46;;;;;;;1.10;1.00;;;17.40;99.90;;;;;;5107253;28;20206;-64
2022/07/15 04:07:13;;;;;;;0.73;0.73;;;17.50;99.90;;;;;;5098295;28;20203;-63
2022/07/15 04:09:40;;;;;;;1.05;1.00;;;17.80;99.90;;;;;;5077935;28;20285;-64
2022/07/15 04:12:07;;;;;;;1.02;1.02;;;18.00;99.90;;;;;;5101275;28;20249;-63
2022/07/15 04:14:35;;;;;;;0.95;0.95;;;18.30;99.90;;;;;;5096020;28;20700;-63
2022/07/15 04:17:02;;;;;;;0.90;0.90;;;18.50;99.90;;;;;;5091740;28;20293;-64
2022/07/15 04:19:30;;;;;;;1.20;1.10;;;18.60;99.90;;;;;;5093706;28;20287;-63
2022/07/15 04:21:57;;;;;;;0.85;0.85;;;18.70;99.90;;;;;;5083677;28;20231;-63
2022/07/15 04:24:23;;;;;;;0.85;0.85;;;18.80;99.90;;;;;;5083968;28;20241;-64
2022/07/15 04:26:50;;;;;;;0.98;0.98;;;18.80;99.90;;;;;;5102029;28;20641;-65
2022/07/15 04:29:17;;;;;;;0.80;0.80;;;18.90;99.90;;;;;;5095141;28;20578;-65
2022/07/15 04:31:46;;;;;;;0.88;0.88;;;18.90;99.90;;;;;;5101262;28;20202;-65
2022/07/15 04:34:13;;;;;;;0.88;0.88;;;19.00;99.90;;;;;;5093861;28;20233;-65
2022/07/15 04:36:40;;;;;;;1.05;1.05;;;19.20;99.90;;;;;;5095951;28;20304;-66
2022/07/15 04:39:07;;;;;;;1.00;1.00;;;19.20;99.90;;;;;;5096198;28;20209;-65
2022/07/15 04:41:34;;;;;;;0.85;0.85;;;19.20;99.90;;;;;;5094727;28;20688;-66
2022/07/15 04:44:00;;;;;;;0.80;0.80;;;19.30;99.90;;;;;;5101161;28;20209;-66
2022/07/15 04:46:27;;;;;;;1.50;1.00;;;19.30;99.90;;;;;;5096530;28;20623;-63
2022/07/15 04:51:40;;;;;;;1.10;1.10;;;19.30;99.90;;;;;;5090696;28;20221;-64
2022/07/15 04:54:07;;;;;;;1.77;1.30;;;19.20;99.90;;;;;;5095308;28;20208;-64
2022/07/15 04:56:34;;;;;;;3.00;1.40;;;19.20;99.90;;;;;;5095517;28;20202;-64
2022/07/15 04:59:01;;;;;;;1.45;1.10;;;19.20;99.90;;;;;;5082690;28;20199;-64
2022/07/15 05:01:28;;;;;;;1.10;1.10;;;19.30;99.90;;;;;;5084909;28;20236;-63
2022/07/15 05:03:56;;;;;;;0.93;0.93;;;19.30;99.90;;;;;;5101848;28;20687;-63
2022/07/15 05:06:23;;;;;;;2.50;1.50;;;19.30;99.90;;;;;;5089161;28;20252;-63
2022/07/15 05:08:50;;;;;;;1.65;1.45;;;19.30;99.90;;;;;;5079443;28;20672;-63
2022/07/15 05:11:17;;;;;;;1.10;1.02;;;19.20;99.90;;;;;;5084302;28;20301;-63
2022/07/15 05:13:44;;;;;;;1.55;0.95;;;19.30;99.90;;;;;;5086263;28;20213;-64
2022/07/15 05:16:11;;;;;;;1.40;0.98;;;19.30;99.90;;;;;;5084036;28;20241;-63
2022/07/15 05:18:37;;;;;;;1.77;1.20;;;19.40;99.90;;;;;;5084590;28;20212;-63
2022/07/15 05:21:06;;;;;;;1.73;1.35;;;19.50;99.90;;;;;;5084408;28;20281;-63
2022/07/15 05:23:33;;;;;;;1.42;1.33;;;19.50;99.90;;;;;;5096624;28;20408;-63
2022/07/15 05:25:59;;;;;;;0.90;0.90;;;19.60;99.90;;;;;;5088718;28;20237;-63
2022/07/15 05:28:27;;;;;;;2.85;1.30;;;19.90;99.90;;;;;;5092613;28;20267;-63
2022/07/15 05:30:54;;;;;;;1.30;1.25;;;20.00;99.90;;;;;;5088971;28;20222;-63
2022/07/15 05:33:21;;;;;;;2.63;1.30;;;20.20;99.90;;;;;;5094727;28;20194;-63
2022/07/15 05:35:48;;;;;;;1.17;1.17;;;20.40;99.90;;;;;;5083467;28;20199;-64
2022/07/15 05:38:16;;;;;;;1.02;1.00;;;20.50;99.90;;;;;;5090393;28;20290;-63
2022/07/15 05:40:43;;;;;;;0.93;0.93;;;20.50;99.90;;;;;;5099303;28;20583;-63
2022/07/15 05:43:10;;;;;;;1.83;1.20;;;20.50;99.90;;;;;;5088923;28;20227;-63
2022/07/15 05:45:37;;;;;;;1.20;1.13;;;20.50;99.90;;;;;;5088728;28;20202;-64
2022/07/15 05:48:04;;;;;;;1.00;1.00;;;20.40;99.90;;;;;;5093598;28;20237;-64
2022/07/15 05:50:31;;;;;;;1.60;1.15;;;20.50;99.90;;;;;;5087742;28;20223;-62
2022/07/15 05:52:58;;;;;;;1.00;1.00;;;20.60;99.90;;;;;;5090099;28;20281;-63
2022/07/15 05:55:26;;;;;;;1.30;1.20;;;20.80;99.90;;;;;;5082011;28;20618;-64
2022/07/15 05:57:53;;;;;;;1.00;1.00;;;21.00;99.90;;;;;;5088554;28;20284;-65
2022/07/15 06:00:20;;;;;;;1.00;1.00;;;21.20;99.90;;;;;;5089845;28;20792;-64
2022/07/15 06:02:47;;;;;;;1.05;1.02;;;21.40;99.90;;;;;;5086083;28;20229;-63
2022/07/15 06:05:14;;;;;;;1.17;1.17;;;21.60;99.90;;;;;;5100033;28;20221;-62
2022/07/15 06:07:42;;;;;;;1.10;1.10;;;21.70;99.90;;;;;;5094470;28;20219;-65
2022/07/15 06:10:09;;;;;;;0.98;0.98;;;21.90;99.90;;;;;;5079758;28;20239;-64
2022/07/15 06:12:37;;;;;;;1.30;1.20;;;22.00;99.90;;;;;;5075952;28;20803;-63
2022/07/15 06:15:05;;;;;;;1.38;1.20;;;22.00;99.90;;;;;;5087403;28;20264;-63
2022/07/15 06:17:33;;;;;;;1.50;1.40;;;22.20;99.90;;;;;;5096033;28;20206;-63
2022/07/15 06:20:00;;;;;;;1.30;1.20;;;22.20;99.90;;;;;;5087548;28;20243;-63
2022/07/15 06:22:27;;;;;;;1.40;1.30;;;22.10;99.90;;;;;;5089531;28;20226;-63
2022/07/15 06:24:54;;;;;;;1.20;1.20;;;21.90;99.90;;;;;;5089460;28;20290;-63
2022/07/15 06:27:22;;;;;;;4.40;1.40;;;21.90;99.90;;;;;;5098992;28;20210;-63
2022/07/15 06:29:51;;;;;;;1.60;1.50;;;21.90;99.90;;;;;;5093266;28;20281;-63
2022/07/15 06:32:17;;;;;;;1.50;1.40;;;22.10;99.90;;;;;;5101491;28;20205;-64
2022/07/15 06:34:45;;;;;;;1.40;1.30;;;22.00;99.90;;;;;;5089863;28;20286;-64
2022/07/15 06:37:12;;;;;;;1.40;1.30;;;22.00;99.90;;;;;;5090460;28;20238;-63
2022/07/15 06:39:38;;;;;;;1.38;1.27;;;22.00;99.90;;;;;;5094242;28;20797;-64
2022/07/15 06:42:06;;;;;;;1.17;1.15;;;22.00;99.90;;;;;;5088970;28;20232;-62
2022/07/15 06:44:33;;;;;;;1.30;1.00;;;21.90;99.90;;;;;;5090263;28;20275;-64
2022/07/15 06:47:02;;;;;;;1.50;1.40;;;22.00;99.90;;;;;;5090920;28;20207;-63
2022/07/15 06:49:30;;;;;;;3.53;1.30;;;22.00;99.90;;;;;;5088077;28;20244;-63
2022/07/15 06:51:57;;;;;;;1.30;1.20;;;22.10;99.90;;;;;;5087905;28;20294;-62
2022/07/15 06:54:24;;;;;;;1.63;1.30;;;22.20;99.90;;;;;;5095921;28;20225;-63
2022/07/15 06:56:52;;;;;;;1.50;1.13;;;22.40;99.90;;;;;;5084931;28;20252;-63
2022/07/15 06:59:19;;;;;;;1.08;1.08;;;22.50;99.90;;;;;;5088957;28;20200;-63
2022/07/15 07:01:46;;;;;;;1.00;1.00;;;22.60;99.90;;;;;;5105475;28;20308;-63
2022/07/15 07:04:14;;;;;;;1.45;1.35;;;22.70;99.90;;;;;;5095248;28;20206;-63
2022/07/15 07:06:41;;;;;;;2.05;1.23;;;22.80;99.90;;;;;;5086405;28;20206;-63
2022/07/15 07:09:08;;;;;;;1.20;1.10;;;22.80;99.90;;;;;;5088420;28;20777;-63
2022/07/15 07:11:35;;;;;;;1.10;1.10;;;22.60;99.90;;;;;;5093418;28;20665;-64
2022/07/15 07:14:02;;;;;;;1.50;1.40;;;22.60;99.90;;;;;;5084717;28;20206;-64
2022/07/15 07:16:30;;;;;;;1.00;1.00;;;22.70;99.90;;;;;;5092447;28;20202;-63
2022/07/15 07:18:58;;;;;;;1.23;1.10;;;22.80;99.90;;;;;;5086834;28;20199;-63
2022/07/15 07:21:26;;;;;;;1.40;1.10;;;22.90;99.90;;;;;;5088899;28;20259;-63
2022/07/15 07:23:53;;;;;;;1.30;1.20;;;23.00;99.90;;;;;;5094643;28;20230;-63
2022/07/15 07:26:20;;;;;;;2.83;1.20;;;23.00;99.90;;;;;;5093810;28;20272;-63
2022/07/15 07:28:48;;;;;;;1.40;1.30;;;23.10;99.90;;;;;;5082272;28;20673;-63
2022/07/15 07:31:15;;;;;;;1.48;1.30;;;23.00;99.90;;;;;;5092853;28;20222;-63
2022/07/15 07:33:43;;;;;;;1.10;1.10;;;23.00;99.90;;;;;;5096093;28;20251;-62
2022/07/15 07:36:10;;;;;;;1.10;1.10;;;22.70;99.90;;;;;;5090679;28;20199;-63
2022/07/15 07:38:38;;;;;;;1.52;1.42;;;22.70;99.90;;;;;;5102974;28;20366;-62
2022/07/15 07:41:06;;;;;;;1.17;1.17;;;22.90;99.90;;;;;;5093312;28;20709;-63
2022/07/15 07:43:34;;;;;;;1.20;1.20;;;23.10;99.90;;;;;;5093641;28;20245;-63
2022/07/15 07:46:01;;;;;;;1.75;1.00;;;22.90;99.90;;;;;;5090373;28;20206;-64
2022/07/15 07:48:29;;;;;;;1.30;1.20;;;23.00;99.90;;;;;;5095111;28;20229;-62
2022/07/15 07:50:56;;;;;;;1.38;1.27;;;23.00;99.90;;;;;;5086408;28;20284;-63
2022/07/15 07:53:23;;;;;;;1.20;1.20;;;23.10;99.90;;;;;;5084354;28;20290;-62
2022/07/15 07:55:52;;;;;;;1.45;1.35;;;23.20;99.90;;;;;;5089157;28;20230;-62
2022/07/15 07:58:20;;;;;;;1.67;1.13;;;23.10;99.90;;;;;;5087444;28;20276;-62
2022/07/15 08:00:48;;;;;;;1.20;1.10;;;23.10;99.90;;;;;;5089381;28;20283;-62
2022/07/15 08:03:16;;;;;;;1.30;1.20;;;23.30;99.90;;;;;;5092948;28;20222;-64
2022/07/15 08:05:43;;;;;;;1.77;1.25;;;23.40;99.90;;;;;;5094984;28;20214;-63
2022/07/15 08:08:12;;;;;;;1.27;1.20;;;23.50;99.90;;;;;;5100777;28;20206;-64
2022/07/15 08:10:39;;;;;;;1.63;1.50;;;23.50;99.90;;;;;;5094417;28;20600;-64
2022/07/15 08:13:07;;;;;;;1.33;1.23;;;23.50;99.90;;;;;;5091354;28;20282;-64
2022/07/15 08:15:35;;;;;;;1.13;1.10;;;23.50;99.90;;;;;;5094958;28;20236;-62
2022/07/15 08:18:02;;;;;;;1.10;1.10;;;23.60;99.90;;;;;;5084520;28;20207;-63
2022/07/15 08:20:29;;;;;;;1.15;1.10;;;23.80;99.90;;;;;;5091577;28;20738;-64
2022/07/15 08:22:59;;;;;;;1.00;1.00;;;24.00;99.90;;;;;;5084424;28;20225;-63
2022/07/15 08:25:27;;;;;;;1.00;1.00;;;24.00;99.90;;;;;;5091706;28;20205;-64
2022/07/15 08:27:54;;;;;;;1.35;1.25;;;24.20;99.90;;;;;;5092518;28;20661;-64
2022/07/15 08:30:22;;;;;;;1.30;1.20;;;24.20;99.90;;;;;;5086062;28;20272;-62
2022/07/15 08:32:49;;;;;;;1.10;1.10;;;24.20;99.90;;;;;;5085396;28;20196;-63
2022/07/15 08:35:16;;;;;;;1.27;1.20;;;24.10;99.90;;;;;;5084387;28;20286;-63
2022/07/15 08:37:43;;;;;;;1.50;1.10;;;24.40;99.90;;;;;;5093870;28;20732;-63
2022/07/15 08:40:11;;;;;;;2.13;1.30;;;24.50;99.90;;;;;;5093511;28;20236;-64
2022/07/15 08:42:41;;;;;;;1.90;1.20;;;24.50;99.90;;;;;;5098391;28;20218;-65
2022/07/15 08:45:09;;;;;;;1.42;1.20;;;24.50;99.90;;;;;;5086799;28;20203;-63
2022/07/15 08:47:39;;;;;;;1.83;1.23;;;24.60;99.90;;;;;;5097321;28;20248;-63
2022/07/15 08:50:09;;;;;;;1.27;1.17;;;24.80;99.90;;;;;;5099417;28;20301;-64
2022/07/15 08:52:38;;;;;;;1.00;1.00;;;24.80;99.90;;;;;;5082083;28;20298;-64
2022/07/15 08:55:06;;;;;;;1.30;1.20;;;24.70;99.90;;;;;;5082180;28;20263;-63
2022/07/15 08:57:34;;;;;;;1.08;1.08;;;24.80;99.90;;;;;;5088543;28;20349;-63
2022/07/15 09:00:01;;;;;;;2.78;1.33;;;24.80;99.90;;;;;;5089796;28;20229;-63
2022/07/15 09:02:28;;;;;;;1.00;1.00;;;24.80;99.90;;;;;;5093256;28;20289;-63
2022/07/15 09:05:26;;;;;;;1.45;1.35;;;24.80;99.90;;;;;;5091926;28;20649;-63
2022/07/15 09:07:56;;;;;;;1.02;1.02;;;25.00;99.90;;;;;;5086917;28;20198;-63
2022/07/15 09:10:24;;;;;;;1.00;1.00;;;25.00;99.90;;;;;;5088547;28;20299;-63
2022/07/15 09:12:52;;;;;;;1.10;1.10;;;24.90;99.90;;;;;;5086811;28;20206;-65
2022/07/15 09:15:33;;;;;;;1.60;1.20;;;24.90;99.90;;;;;;5088008;28;20289;-64
2022/07/15 09:18:08;;;;;;;1.25;1.20;;;25.20;99.90;;;;;;5087778;28;20202;-64
2022/07/15 09:20:37;;;;;;;1.25;1.00;;;25.30;99.90;;;;;;5076394;28;20261;-64
2022/07/15 09:23:04;;;;;;;0.98;0.90;;;25.40;99.90;;;;;;5082675;28;20693;-64
2022/07/15 09:25:33;;;;;;;2.38;1.08;;;25.20;99.90;;;;;;5100988;28;20193;-65
2022/07/15 09:28:02;;;;;;;0.90;0.90;;;25.30;99.90;;;;;;5093629;28;20294;-65
2022/07/15 09:33:35;;;;;;;1.38;1.27;;;25.50;99.90;;;;;;5097667;28;20193;-63
2022/07/15 09:36:09;;;;;;;0.70;0.70;;;25.40;99.90;;;;;;5097811;28;20206;-62
2022/07/15 09:38:43;;;;;;;1.33;1.23;;;25.60;99.90;;;;;;5094076;28;20287;-63
2022/07/15 09:41:26;;;;;;;0.95;0.95;;;25.60;99.90;;;;;;5080590;28;20223;-64
2022/07/15 09:43:55;;;;;;;0.70;0.70;;;25.70;99.90;;;;;;5088060;28;20301;-63
2022/07/15 09:46:23;;;;;;;1.15;1.08;;;26.00;99.90;;;;;;5088043;28;20210;-64
2022/07/15 09:48:52;;;;;;;1.27;1.17;;;25.90;99.90;;;;;;5095819;28;20228;-63
2022/07/15 09:51:22;;;;;;;1.10;1.00;;;26.00;99.90;;;;;;5088257;28;20592;-63
2022/07/15 09:53:50;;;;;;;1.13;1.05;;;26.00;99.90;;;;;;5084773;28;20234;-64
2022/07/15 09:56:21;;;;;;;0.98;0.98;;;26.20;99.90;;;;;;5094221;28;20207;-63
2022/07/15 09:58:48;;;;;;;1.10;1.10;;;26.40;99.90;;;;;;5094697;28;20247;-64
2022/07/15 10:01:15;;;;;;;1.10;1.00;;;26.40;99.90;;;;;;5097895;28;20242;-63
2022/07/15 10:03:42;;;;;;;0.93;0.93;;;26.60;99.90;;;;;;5091956;28;20711;-64
2022/07/15 10:06:13;;;;;;;2.10;1.10;;;26.50;99.90;;;;;;5100865;28;20238;-64
2022/07/15 10:08:45;;;;;;;1.77;1.10;;;26.60;99.90;;;;;;5095772;28;20203;-63
2022/07/15 10:11:12;;;;;;;1.45;1.35;;;26.70;99.90;;;;;;5093069;28;20227;-65
2022/07/15 10:14:05;;;;;;;1.00;1.00;;;26.80;99.90;;;;;;5083291;28;20203;-65
2022/07/15 10:17:07;;;;;;;0.90;0.90;;;26.70;99.90;;;;;;5083065;28;20233;-64
2022/07/15 10:19:52;;;;;;;1.00;1.00;;;26.70;99.90;;;;;;5089505;28;20324;-64
2022/07/15 10:22:31;;;;;;;1.00;1.00;;;26.90;99.90;;;;;;5080477;28;20735;-63
2022/07/15 10:25:17;;;;;;;1.05;1.05;;;26.90;99.90;;;;;;5085273;28;20223;-64
2022/07/15 10:27:58;;;;;;;1.00;1.00;;;27.20;99.90;;;;;;5088690;28;20282;-64
2022/07/15 10:30:25;;;;;;;0.90;0.90;;;27.30;99.90;;;;;;5088271;28;20736;-63
2022/07/15 10:33:13;;;;;;;0.80;0.80;;;27.20;99.90;;;;;;5090744;28;20210;-63
2022/07/15 10:35:43;;;;;;;0.98;0.98;;;27.10;99.60;;;;;;5085471;28;20200;-63
2022/07/15 10:38:32;;;;;;;0.98;0.98;;;27.00;99.90;;;;;;5087873;28;20236;-62
2022/07/15 10:41:07;;;;;;;1.08;1.08;;;27.00;99.60;;;;;;5084409;28;20322;-65
2022/07/15 10:43:42;;;;;;;1.05;1.05;;;27.20;99.90;;;;;;5085815;28;20292;-64
2022/07/15 10:46:28;;;;;;;0.95;0.95;;;27.20;99.90;;;;;;5091526;28;20213;-64
2022/07/15 10:49:29;;;;;;;0.98;0.98;;;27.20;99.70;;;;;;5102432;28;20289;-64
2022/07/15 10:52:09;;;;;;;0.80;0.80;;;27.40;99.20;;;;;;5074331;28;20202;-64
2022/07/15 10:54:42;;;;;;;1.08;1.08;;;27.50;99.10;;;;;;5093607;28;20209;-64
2022/07/15 10:57:13;;;;;;;1.10;1.10;;;27.50;99.70;;;;;;5088514;28;20280;-63
2022/07/15 10:59:48;;;;;;;1.00;1.00;;;27.80;98.80;;;;;;5089478;28;20223;-62
2022/07/15 11:02:18;;;;;;;1.30;1.20;;;28.00;98.40;;;;;;5092940;28;20201;-64
2022/07/15 11:04:45;;;;;;;1.17;1.17;;;27.80;98.60;;;;;;5089986;28;20215;-63
2022/07/15 11:07:38;;;;;;;1.08;1.08;;;28.00;98.70;;;;;;5094967;28;20343;-63
2022/07/15 11:10:19;;;;;;;1.10;1.10;;;28.20;99.00;;;;;;5088489;28;20242;-63
2022/07/15 11:13:11;;;;;;;1.20;1.10;;;28.10;98.80;;;;;;5090005;28;20285;-62
2022/07/15 11:15:39;;;;;;;1.08;1.08;;;28.10;98.20;;;;;;5090331;28;20245;-64
2022/07/15 11:18:06;;;;;;;1.02;1.02;;;28.20;98.50;;;;;;5095661;28;20248;-62
2022/07/15 11:20:35;;;;;;;2.63;1.15;;;28.20;97.60;;;;;;5093718;28;20230;-63
2022/07/15 11:23:03;;;;;;;0.90;0.90;;;27.90;97.60;;;;;;5094158;28;20297;-64
2022/07/15 11:25:32;;;;;;;1.13;1.13;;;27.80;98.60;;;;;;5094018;28;20272;-63
2022/07/15 11:28:06;;;;;;;0.90;0.90;;;27.70;97.90;;;;;;5093739;28;20234;-64
2022/07/15 11:30:39;;;;;;;0.80;0.80;;;27.80;98.00;;;;;;5095322;28;20222;-63
2022/07/15 11:33:08;;;;;;;0.98;0.98;;;27.80;98.00;;;;;;5091581;28;20199;-63
2022/07/15 11:35:52;;;;;;;0.90;0.90;;;27.90;98.00;;;;;;5105092;28;20209;-63
2022/07/15 11:38:22;;;;;;;1.23;1.23;;;27.70;97.90;;;;;;5096527;28;20206;-63
2022/07/15 11:46:23;;;;;;;1.30;1.10;;;28.40;98.00;;;;;;5088336;28;20667;-63
2022/07/15 11:48:51;;;;;;;1.45;1.35;;;28.50;97.80;;;;;;5092033;28;20222;-63
2022/07/15 11:51:24;;;;;;;1.80;1.10;;;28.20;97.20;;;;;;5096129;28;20587;-63
2022/07/15 11:53:51;;;;;;;2.00;1.02;;;27.90;97.30;;;;;;5098860;28;20228;-63
2022/07/15 11:56:18;;;;;;;1.00;1.00;;;28.20;97.30;;;;;;5090995;28;20209;-65
2022/07/15 11:58:46;;;;;;;1.00;1.00;;;28.10;97.30;;;;;;5088544;28;20285;-64
2022/07/15 12:01:15;;;;;;;1.08;1.05;;;28.20;97.40;;;;;;5088528;28;20313;-63
2022/07/15 12:03:47;;;;;;;0.95;0.95;;;28.30;97.50;;;;;;5088372;28;20562;-63
2022/07/15 12:06:16;;;;;;;1.02;1.02;;;28.50;97.00;;;;;;5090873;28;20281;-64
2022/07/15 12:08:46;;;;;;;1.52;1.10;;;28.30;96.80;;;;;;5086820;28;20227;-63
2022/07/15 12:11:22;;;;;;;1.10;1.10;;;28.10;96.90;;;;;;5082787;28;20670;-64
2022/07/15 12:13:53;;;;;;;0.90;0.90;;;28.10;96.50;;;;;;5081545;28;20195;-64
2022/07/15 12:16:23;;;;;;;1.20;1.10;;;27.90;96.70;;;;;;5088725;28;20226;-64
2022/07/15 12:18:53;;;;;;;0.90;0.90;;;27.90;97.00;;;;;;5084938;28;20213;-66
2022/07/15 12:21:21;;;;;;;1.00;1.00;;;28.00;97.00;;;;;;5087482;28;20227;-62
2022/07/15 12:24:09;;;;;;;1.23;1.13;;;28.00;96.60;;;;;;5089373;28;20309;-63
2022/07/15 12:26:39;;;;;;;1.10;1.10;;;28.10;97.10;;;;;;5086359;28;20242;-64
2022/07/15 12:29:09;;;;;;;1.00;1.00;;;28.20;96.90;;;;;;5087504;28;20199;-63
2022/07/15 12:31:38;;;;;;;0.98;0.98;;;28.20;96.90;;;;;;5085098;28;20217;-64
2022/07/15 12:34:07;;;;;;;1.10;1.10;;;28.30;97.00;;;;;;5090601;28;20689;-64
2022/07/15 12:36:35;;;;;;;1.00;1.00;;;28.30;96.50;;;;;;5089615;28;20203;-64
2022/07/15 12:39:05;;;;;;;1.10;1.00;;;28.50;97.40;;;;;;5086547;28;20196;-64
2022/07/15 12:41:33;;;;;;;0.95;0.95;;;28.80;96.70;;;;;;5085091;28;20206;-64
2022/07/15 12:44:02;;;;;;;0.88;0.88;;;28.70;96.50;;;;;;5091614;28;20214;-66
2022/07/15 12:46:49;;;;;;;1.90;1.13;;;28.50;96.50;;;;;;5090958;28;20228;-64
2022/07/15 12:49:54;;;;;;;1.02;1.02;;;28.50;96.20;;;;;;5085158;28;21580;-64
2022/07/15 12:52:32;;;;;;;0.80;0.80;;;28.50;95.60;;;;;;5088355;28;20657;-63
2022/07/15 12:55:00;;;;;;;0.90;0.90;;;28.30;95.30;;;;;;5087649;28;20701;-63
2022/07/15 12:57:30;;;;;;;1.10;1.00;;;28.50;95.70;;;;;;5083779;28;20205;-63
2022/07/15 12:59:59;;;;;;;0.80;0.80;;;28.60;94.90;;;;;;5082723;28;20232;-63
2022/07/15 13:02:27;;;;;;;0.88;0.88;;;28.70;94.90;;;;;;5085454;28;20208;-63
2022/07/15 13:04:54;;;;;;;0.80;0.80;;;28.60;95.10;;;;;;5088705;28;20214;-63
2022/07/15 13:07:21;;;;;;;0.80;0.80;;;28.60;94.40;;;;;;5087653;28;20199;-64
2022/07/15 13:09:50;;;;;;;1.08;1.08;;;28.60;94.00;;;;;;5089194;28;20334;-65